createdAt,value
2022-08-17T00:00:53.173Z,17.8
2022-08-17T00:02:53.455Z,17.8
2022-08-17T00:04:51.162Z,17.8
2022-08-17T00:06:50.609Z,17.8
2022-08-17T00:08:50.685Z,17.7
2022-08-17T00:10:50.769Z,17.7
2022-08-17T00:12:50.865Z,17.6
2022-08-17T00:14:49.973Z,17.6
2022-08-17T00:16:57.990Z,17.6
2022-08-17T00:19:09.046Z,17.6
2022-08-17T00:20:50.725Z,17.5
2022-08-17T00:22:51.561Z,17.5
2022-08-17T00:24:50.508Z,17.5
2022-08-17T00:26:50.620Z,17.5
2022-08-17T00:28:52.299Z,17.4
2022-08-17T00:30:54.064Z,17.4
2022-08-17T00:33:17.146Z,17.4
2022-08-17T00:34:50.241Z,17.4
2022-08-17T00:36:50.682Z,17.4
2022-08-17T00:38:50.643Z,17.3
2022-08-17T00:40:59.548Z,17.3
2022-08-17T00:42:51.596Z,17.3
2022-08-17T00:44:50.897Z,17.2
2022-08-17T00:46:50.191Z,17.2
2022-08-17T00:48:50.233Z,17.2
2022-08-17T00:50:49.996Z,17.2
2022-08-17T00:52:50.882Z,17.2
2022-08-17T00:54:50.415Z,17.1
2022-08-17T00:56:50.752Z,17.1
2022-08-17T00:58:50.911Z,17.0
2022-08-17T01:00:50.202Z,17.0
2022-08-17T01:02:50.213Z,17.0
2022-08-17T01:04:50.594Z,16.9
2022-08-17T01:06:50.775Z,16.9
2022-08-17T01:08:58.421Z,16.8
2022-08-17T01:11:02.430Z,16.8
2022-08-17T01:12:50.902Z,16.8
2022-08-17T01:14:50.161Z,16.8
2022-08-17T01:16:50.534Z,16.7
2022-08-17T01:18:50.752Z,16.7
2022-08-17T01:20:50.743Z,16.6
2022-08-17T01:22:51.671Z,16.6
2022-08-17T01:24:50.014Z,16.6
2022-08-17T01:26:50.531Z,16.6
2022-08-17T01:28:56.212Z,16.6
2022-08-17T01:30:59.778Z,16.5
2022-08-17T01:32:51.761Z,16.5
2022-08-17T01:34:51.280Z,16.5
2022-08-17T01:36:50.423Z,16.5
2022-08-17T01:38:50.290Z,16.4
2022-08-17T01:40:58.107Z,16.4
2022-08-17T01:42:50.976Z,16.4
2022-08-17T01:44:50.325Z,16.4
2022-08-17T01:46:53.582Z,16.4
2022-08-17T01:48:50.320Z,16.4
2022-08-17T01:50:50.198Z,16.3
2022-08-17T01:52:51.003Z,16.3
2022-08-17T01:54:50.439Z,16.3
2022-08-17T01:56:50.639Z,16.2
2022-08-17T01:58:50.594Z,16.2
2022-08-17T02:01:02.214Z,16.2
2022-08-17T02:02:51.576Z,16.2
2022-08-17T02:04:50.213Z,16.2
2022-08-17T02:06:54.962Z,16.2
2022-08-17T02:09:04.132Z,16.1
2022-08-17T02:10:52.726Z,16.1
2022-08-17T02:12:51.383Z,16.0
2022-08-17T02:14:50.902Z,16.0
2022-08-17T02:16:50.260Z,16.0
2022-08-17T02:18:50.376Z,16.0
2022-08-17T02:20:50.316Z,16.0
2022-08-17T02:22:51.382Z,16.0
2022-08-17T02:25:02.878Z,16.0
2022-08-17T02:26:50.754Z,16.0
2022-08-17T02:28:53.159Z,16.0
2022-08-17T02:31:03.555Z,15.9
2022-08-17T02:32:50.801Z,15.9
2022-08-17T02:34:50.519Z,15.9
2022-08-17T02:36:50.805Z,15.9
2022-08-17T02:38:50.854Z,15.9
2022-08-17T02:40:50.827Z,15.8
2022-08-17T02:42:51.497Z,15.8
2022-08-17T02:44:50.840Z,15.8
2022-08-17T02:46:50.918Z,15.8
2022-08-17T02:48:49.964Z,15.8
2022-08-17T02:50:49.935Z,15.8
2022-08-17T02:53:05.280Z,15.8
2022-08-17T02:54:49.953Z,15.7
2022-08-17T02:56:50.339Z,15.7
2022-08-17T02:58:50.316Z,15.7
2022-08-17T03:00:50.283Z,15.7
2022-08-17T03:02:51.005Z,15.6
2022-08-17T03:04:50.868Z,15.6
2022-08-17T03:06:50.214Z,15.6
2022-08-17T03:08:50.227Z,15.6
2022-08-17T03:10:50.158Z,15.6
2022-08-17T03:12:51.319Z,15.5
2022-08-17T03:14:50.518Z,15.5
2022-08-17T03:16:50.850Z,15.5
2022-08-17T03:18:50.771Z,15.5
2022-08-17T03:20:50.765Z,15.5
2022-08-17T03:22:54.262Z,15.5
2022-08-17T03:24:51.006Z,15.5
2022-08-17T03:26:50.477Z,15.4
2022-08-17T03:28:50.465Z,15.4
2022-08-17T03:30:50.440Z,15.4
2022-08-17T03:32:51.203Z,15.4
2022-08-17T03:34:50.144Z,15.4
2022-08-17T03:36:50.437Z,15.4
2022-08-17T03:38:51.505Z,15.4
2022-08-17T03:41:00.198Z,15.4
2022-08-17T03:42:51.090Z,15.4
2022-08-17T03:44:50.410Z,15.4
2022-08-17T03:46:50.914Z,15.4
2022-08-17T03:48:49.982Z,15.4
2022-08-17T03:50:50.870Z,15.4
2022-08-17T03:52:53.180Z,15.4
2022-08-17T03:54:50.461Z,15.4
2022-08-17T03:56:50.705Z,15.4
2022-08-17T03:58:50.648Z,15.4
2022-08-17T04:00:50.675Z,15.4
2022-08-17T04:02:51.337Z,15.3
2022-08-17T04:04:50.216Z,15.3
2022-08-17T04:06:50.697Z,15.3
2022-08-17T04:08:50.665Z,15.3
2022-08-17T04:10:50.602Z,15.3
2022-08-17T04:12:51.246Z,15.3
2022-08-17T04:14:55.579Z,15.3
2022-08-17T04:16:50.693Z,15.3
2022-08-17T04:18:50.808Z,15.3
2022-08-17T04:20:50.742Z,15.3
2022-08-17T04:22:56.163Z,15.3
2022-08-17T04:24:50.035Z,15.3
2022-08-17T04:26:55.063Z,15.3
2022-08-17T04:28:50.182Z,15.4
2022-08-17T04:30:50.215Z,15.4
2022-08-17T04:33:10.202Z,15.4
2022-08-17T04:34:50.387Z,15.4
2022-08-17T04:36:52.644Z,15.4
2022-08-17T04:38:50.625Z,15.4
2022-08-17T04:40:50.372Z,15.4
2022-08-17T04:43:02.006Z,15.4
2022-08-17T04:44:50.032Z,15.5
2022-08-17T04:46:50.325Z,15.4
2022-08-17T04:48:50.152Z,15.4
2022-08-17T04:50:50.281Z,15.5
2022-08-17T04:52:50.433Z,15.5
2022-08-17T04:54:50.438Z,15.6
2022-08-17T04:56:50.737Z,15.8
2022-08-17T04:58:50.894Z,15.8
2022-08-17T05:00:50.466Z,15.8
2022-08-17T05:02:51.833Z,15.9
2022-08-17T05:04:50.824Z,16.1
2022-08-17T05:06:50.094Z,16.1
2022-08-17T05:08:50.128Z,16.3
2022-08-17T05:10:50.031Z,16.4
2022-08-17T05:12:50.836Z,16.4
2022-08-17T05:14:50.059Z,16.5
2022-08-17T05:16:50.346Z,16.6
2022-08-17T05:18:50.409Z,16.6
2022-08-17T05:20:53.016Z,16.8
2022-08-17T05:22:51.806Z,16.9
2022-08-17T05:24:55.943Z,17.0
2022-08-17T05:26:52.502Z,17.0
2022-08-17T05:28:51.301Z,17.0
2022-08-17T05:30:50.517Z,17.0
2022-08-17T05:32:50.913Z,17.0
2022-08-17T05:34:50.438Z,17.0
2022-08-17T05:36:50.853Z,17.1
2022-08-17T05:38:50.820Z,17.2
2022-08-17T05:40:50.643Z,17.2
2022-08-17T05:42:53.324Z,17.3
2022-08-17T05:44:50.525Z,17.4
2022-08-17T05:46:50.761Z,17.4
2022-08-17T05:48:50.641Z,17.4
2022-08-17T05:50:50.740Z,17.5
2022-08-17T05:52:51.884Z,17.6
2022-08-17T05:54:50.203Z,17.6
2022-08-17T05:56:50.429Z,17.6
2022-08-17T05:58:50.452Z,17.8
2022-08-17T06:00:51.139Z,17.9
2022-08-17T06:02:52.015Z,18.0
2022-08-17T06:04:49.923Z,18.0
2022-08-17T06:06:50.246Z,18.0
2022-08-17T06:08:52.245Z,18.1
2022-08-17T06:10:50.321Z,18.3
2022-08-17T06:12:51.435Z,18.4
2022-08-17T06:14:50.721Z,18.4
2022-08-17T06:16:50.054Z,18.5
2022-08-17T06:18:50.005Z,18.6
2022-08-17T06:20:50.158Z,18.8
2022-08-17T06:22:50.823Z,18.9
2022-08-17T06:24:50.081Z,18.9
2022-08-17T06:26:50.522Z,18.9
2022-08-17T06:28:50.390Z,19.0
2022-08-17T06:31:01.771Z,19.0
2022-08-17T06:32:51.042Z,19.0
2022-08-17T06:34:49.927Z,19.1
2022-08-17T06:36:50.072Z,19.2
2022-08-17T06:38:50.819Z,19.3
2022-08-17T06:40:50.684Z,19.4
2022-08-17T06:43:07.840Z,19.4
2022-08-17T06:44:52.030Z,19.5
2022-08-17T06:46:50.268Z,19.7
2022-08-17T06:48:50.475Z,19.8
2022-08-17T06:50:50.392Z,19.9
2022-08-17T06:52:50.476Z,19.9
2022-08-17T06:54:50.542Z,20.0
2022-08-17T06:56:55.798Z,20.1
2022-08-17T06:58:50.707Z,20.3
2022-08-17T07:00:59.424Z,20.3
2022-08-17T07:02:53.868Z,20.4
2022-08-17T07:04:50.363Z,20.5
2022-08-17T07:06:50.126Z,20.6
2022-08-17T07:08:50.020Z,20.7
2022-08-17T07:10:50.101Z,20.7
2022-08-17T07:12:50.680Z,20.8
2022-08-17T07:14:50.165Z,20.9
2022-08-17T07:16:50.526Z,21.0
2022-08-17T07:18:50.563Z,21.0
2022-08-17T07:20:50.576Z,21.2
2022-08-17T07:23:00.965Z,21.3
2022-08-17T07:24:50.151Z,21.4
2022-08-17T07:26:51.638Z,21.5
2022-08-17T07:28:50.664Z,21.6
2022-08-17T07:30:50.542Z,21.6
2022-08-17T07:32:50.570Z,21.7
2022-08-17T07:34:50.027Z,21.8
2022-08-17T07:36:50.163Z,22.0
2022-08-17T07:38:50.293Z,22.1
2022-08-17T07:40:50.218Z,22.1
2022-08-17T07:42:50.188Z,22.2
2022-08-17T07:44:50.289Z,22.3
2022-08-17T07:46:50.645Z,22.4
2022-08-17T07:48:50.715Z,22.4
2022-08-17T07:50:51.186Z,22.6
2022-08-17T07:52:52.974Z,22.7
2022-08-17T07:54:50.220Z,22.8
2022-08-17T07:56:50.532Z,22.8
2022-08-17T07:58:50.554Z,22.9
2022-08-17T08:00:50.679Z,23.0
2022-08-17T08:02:51.806Z,23.1
2022-08-17T08:05:02.643Z,23.3
2022-08-17T08:06:50.033Z,23.3
2022-08-17T08:08:50.022Z,23.4
2022-08-17T08:10:50.054Z,23.5
2022-08-17T08:12:54.230Z,23.6
2022-08-17T08:14:50.086Z,23.6
2022-08-17T08:16:50.380Z,23.8
2022-08-17T08:18:58.496Z,23.9
2022-08-17T08:20:54.474Z,24.0
2022-08-17T08:22:50.623Z,24.1
2022-08-17T08:24:50.613Z,24.1
2022-08-17T08:26:50.038Z,24.2
2022-08-17T08:28:49.973Z,24.4
2022-08-17T08:30:50.053Z,24.5
2022-08-17T08:32:50.930Z,24.6
2022-08-17T08:35:04.182Z,24.6
2022-08-17T08:37:22.806Z,24.8
2022-08-17T08:38:50.438Z,24.9
2022-08-17T08:40:50.514Z,25.1
2022-08-17T08:42:50.569Z,25.2
2022-08-17T08:45:05.738Z,25.3
2022-08-17T08:46:50.188Z,25.3
2022-08-17T08:49:11.929Z,25.4
2022-08-17T08:50:50.471Z,25.5
2022-08-17T08:52:50.748Z,25.7
2022-08-17T08:54:50.801Z,25.8
2022-08-17T08:57:25.295Z,25.8
2022-08-17T08:58:50.852Z,25.9
2022-08-17T09:00:49.977Z,26.0
2022-08-17T09:02:50.915Z,26.0
2022-08-17T09:05:15.820Z,26.1
2022-08-17T09:06:50.248Z,26.2
2022-08-17T09:08:50.246Z,26.4
2022-08-17T09:10:50.471Z,26.4
2022-08-17T09:12:50.457Z,26.6
2022-08-17T09:14:50.570Z,26.6
2022-08-17T09:16:50.006Z,26.7
2022-08-17T09:19:05.697Z,26.7
2022-08-17T09:20:50.980Z,26.9
2022-08-17T09:22:50.157Z,27.0
2022-08-17T09:24:50.125Z,27.0
2022-08-17T09:26:50.347Z,27.1
2022-08-17T09:28:50.390Z,27.2
2022-08-17T09:30:50.330Z,27.3
2022-08-17T09:32:50.372Z,27.3
2022-08-17T09:34:52.586Z,27.4
2022-08-17T09:36:51.028Z,27.5
2022-08-17T09:38:49.945Z,27.6
2022-08-17T09:40:49.957Z,27.7
2022-08-17T09:42:50.142Z,27.7
2022-08-17T09:44:50.393Z,27.8
2022-08-17T09:46:50.646Z,27.9
2022-08-17T09:48:50.804Z,28.0
2022-08-17T09:51:07.028Z,28.0
2022-08-17T09:52:50.405Z,28.0
2022-08-17T09:54:51.605Z,28.2
2022-08-17T09:57:29.600Z,28.2
2022-08-17T09:58:50.458Z,28.2
2022-08-17T10:00:50.627Z,28.3
2022-08-17T10:02:50.786Z,28.4
2022-08-17T10:04:50.105Z,28.5
2022-08-17T10:06:50.316Z,28.6
2022-08-17T10:08:50.243Z,28.7
2022-08-17T10:10:57.294Z,28.7
2022-08-17T10:12:53.668Z,28.8
2022-08-17T10:14:56.072Z,28.9
2022-08-17T10:16:50.430Z,29.0
2022-08-17T10:18:50.322Z,29.0
2022-08-17T10:20:50.407Z,29.1
2022-08-17T10:22:55.451Z,29.3
2022-08-17T10:25:20.994Z,29.2
2022-08-17T10:26:57.980Z,29.3
2022-08-17T10:28:50.100Z,29.4
2022-08-17T10:30:50.060Z,29.4
2022-08-17T10:32:50.124Z,29.4
2022-08-17T10:34:50.424Z,29.6
2022-08-17T10:36:50.730Z,29.6
2022-08-17T10:38:50.600Z,29.7
2022-08-17T10:40:50.532Z,29.7
2022-08-17T10:42:50.783Z,29.8
2022-08-17T10:44:50.869Z,29.9
2022-08-17T10:46:50.145Z,30.0
2022-08-17T10:48:50.146Z,30.0
2022-08-17T10:50:50.434Z,30.2
2022-08-17T10:52:50.630Z,30.3
2022-08-17T10:54:59.136Z,30.4
2022-08-17T10:56:50.436Z,30.4
2022-08-17T10:58:50.874Z,30.4
2022-08-17T11:00:50.387Z,30.5
2022-08-17T11:02:51.850Z,30.6
2022-08-17T11:04:49.994Z,30.7
2022-08-17T11:06:50.279Z,30.7
2022-08-17T11:08:50.423Z,30.8
2022-08-17T11:10:52.787Z,30.8
2022-08-17T11:12:51.674Z,30.9
2022-08-17T11:14:50.694Z,30.9
2022-08-17T11:16:50.906Z,31.0
2022-08-17T11:18:50.767Z,31.1
2022-08-17T11:20:50.841Z,31.2
2022-08-17T11:22:51.086Z,31.2
2022-08-17T11:24:50.576Z,31.2
2022-08-17T11:26:50.031Z,31.2
2022-08-17T11:28:53.356Z,31.2
2022-08-17T11:30:50.427Z,31.2
2022-08-17T11:32:57.144Z,31.1
2022-08-17T11:34:50.867Z,31.1
2022-08-17T11:36:50.358Z,31.2
2022-08-17T11:38:50.288Z,31.2
2022-08-17T11:40:50.271Z,31.3
2022-08-17T11:42:51.810Z,31.4
2022-08-17T11:44:50.484Z,31.4
2022-08-17T11:46:52.321Z,31.4
2022-08-17T11:48:50.559Z,31.4
2022-08-17T11:50:50.148Z,31.4
2022-08-17T11:52:50.304Z,31.5
2022-08-17T11:54:50.242Z,31.5
2022-08-17T11:56:50.483Z,31.5
2022-08-17T11:58:50.361Z,31.6
2022-08-17T12:00:50.351Z,31.5
2022-08-17T12:02:50.425Z,31.5
2022-08-17T12:04:51.236Z,31.5
2022-08-17T12:06:50.866Z,31.5
2022-08-17T12:08:56.324Z,31.4
2022-08-17T12:10:50.789Z,31.4
2022-08-17T12:12:50.783Z,31.5
2022-08-17T12:15:12.521Z,31.5
2022-08-17T12:16:50.721Z,31.5
2022-08-17T12:18:50.519Z,31.5
2022-08-17T12:20:57.247Z,31.5
2022-08-17T12:22:50.268Z,31.5
2022-08-17T12:24:50.142Z,31.4
2022-08-17T12:26:50.448Z,31.4
2022-08-17T12:28:50.484Z,31.4
2022-08-17T12:30:52.586Z,31.4
2022-08-17T12:32:50.590Z,31.4
2022-08-17T12:34:50.046Z,31.4
2022-08-17T12:36:50.590Z,31.5
2022-08-17T12:38:51.149Z,31.4
2022-08-17T12:40:50.240Z,31.5
2022-08-17T12:42:50.280Z,31.5
2022-08-17T12:44:51.264Z,31.5
2022-08-17T12:46:53.454Z,31.6
2022-08-17T12:49:00.522Z,31.7
2022-08-17T12:50:50.408Z,31.8
2022-08-17T12:53:02.830Z,31.8
2022-08-17T12:54:50.357Z,31.9
2022-08-17T12:56:50.734Z,32.0
2022-08-17T12:58:50.765Z,32.0
2022-08-17T13:00:50.932Z,32.1
2022-08-17T13:02:50.203Z,32.1
2022-08-17T13:04:50.816Z,32.2
2022-08-17T13:06:50.806Z,32.2
2022-08-17T13:08:50.167Z,32.2
2022-08-17T13:10:52.485Z,32.2
2022-08-17T13:12:50.511Z,32.2
2022-08-17T13:14:50.548Z,32.1
2022-08-17T13:16:52.071Z,32.2
2022-08-17T13:18:50.108Z,32.2
2022-08-17T13:20:50.647Z,32.2
2022-08-17T13:22:50.493Z,32.1
2022-08-17T13:24:50.663Z,32.0
2022-08-17T13:26:49.950Z,32.0
2022-08-17T13:28:50.095Z,31.9
2022-08-17T13:30:50.925Z,31.9
2022-08-17T13:32:50.918Z,31.9
2022-08-17T13:35:28.447Z,31.8
2022-08-17T13:36:51.824Z,31.7
2022-08-17T13:38:50.241Z,31.6
2022-08-17T13:40:50.394Z,31.6
2022-08-17T13:42:54.589Z,31.6
2022-08-17T13:44:50.578Z,31.5
2022-08-17T13:46:57.614Z,31.4
2022-08-17T13:48:50.620Z,31.4
2022-08-17T13:50:50.562Z,31.4
2022-08-17T13:52:52.761Z,31.4
2022-08-17T13:54:55.893Z,31.3
2022-08-17T13:56:50.465Z,31.3
2022-08-17T13:58:50.565Z,31.3
2022-08-17T14:00:50.992Z,31.2
2022-08-17T14:02:50.905Z,31.2
2022-08-17T14:04:53.032Z,31.2
2022-08-17T14:06:54.617Z,31.2
2022-08-17T14:08:50.672Z,31.2
2022-08-17T14:10:50.785Z,31.2
2022-08-17T14:12:49.991Z,31.2
2022-08-17T14:14:50.878Z,31.2
2022-08-17T14:16:50.158Z,31.3
2022-08-17T14:18:57.827Z,31.3
2022-08-17T14:20:50.621Z,31.3
2022-08-17T14:22:50.678Z,31.3
2022-08-17T14:24:50.740Z,31.3
2022-08-17T14:26:50.026Z,31.3
2022-08-17T14:28:57.968Z,31.4
2022-08-17T14:30:49.935Z,31.4
2022-08-17T14:32:50.000Z,31.4
2022-08-17T14:34:50.347Z,31.4
2022-08-17T14:36:50.803Z,31.4
2022-08-17T14:38:50.853Z,31.4
2022-08-17T14:40:50.733Z,31.4
2022-08-17T14:42:50.803Z,31.4
2022-08-17T14:44:50.813Z,31.4
2022-08-17T14:46:50.161Z,31.4
2022-08-17T14:48:57.806Z,31.4
2022-08-17T14:50:50.855Z,31.4
2022-08-17T14:52:50.735Z,31.4
2022-08-17T14:54:50.933Z,31.4
2022-08-17T14:57:23.509Z,31.4
2022-08-17T14:58:50.401Z,31.4
2022-08-17T15:00:50.524Z,31.4
2022-08-17T15:02:50.478Z,31.4
2022-08-17T15:04:50.047Z,31.4
2022-08-17T15:06:50.281Z,31.3
2022-08-17T15:08:50.203Z,31.3
2022-08-17T15:10:50.099Z,31.2
2022-08-17T15:12:49.984Z,31.0
2022-08-17T15:14:49.981Z,31.0
2022-08-17T15:16:50.266Z,30.9
2022-08-17T15:18:50.374Z,30.9
2022-08-17T15:20:50.443Z,30.7
2022-08-17T15:22:50.446Z,30.7
2022-08-17T15:24:50.546Z,30.6
2022-08-17T15:26:50.007Z,30.6
2022-08-17T15:28:54.889Z,30.5
2022-08-17T15:30:50.742Z,30.4
2022-08-17T15:32:56.123Z,30.4
2022-08-17T15:34:50.673Z,30.4
2022-08-17T15:36:50.191Z,30.3
2022-08-17T15:38:50.192Z,30.2
2022-08-17T15:40:50.258Z,30.1
2022-08-17T15:42:50.072Z,30.1
2022-08-17T15:44:50.014Z,30.0
2022-08-17T15:46:50.461Z,29.8
2022-08-17T15:48:50.535Z,29.8
2022-08-17T15:50:50.590Z,29.7
2022-08-17T15:52:50.638Z,29.7
2022-08-17T15:54:50.473Z,29.6
2022-08-17T15:56:50.786Z,29.7
2022-08-17T15:58:50.725Z,29.7
2022-08-17T16:01:35.154Z,29.6
2022-08-17T16:03:47.238Z,29.6
2022-08-17T16:04:52.060Z,29.5
2022-08-17T16:06:50.516Z,29.4
2022-08-17T16:08:50.572Z,29.4
2022-08-17T16:10:50.597Z,29.4
2022-08-17T16:12:51.590Z,29.3
2022-08-17T16:14:49.933Z,29.3
2022-08-17T16:16:50.108Z,29.2
2022-08-17T16:18:59.631Z,29.2
2022-08-17T16:20:50.529Z,29.2
2022-08-17T16:22:52.130Z,29.2
2022-08-17T16:24:58.079Z,29.1
2022-08-17T16:26:50.520Z,29.1
2022-08-17T16:28:50.439Z,29.1
2022-08-17T16:30:50.617Z,29.1
2022-08-17T16:32:51.367Z,29.1
2022-08-17T16:34:50.745Z,29.1
2022-08-17T16:36:56.907Z,29.1
2022-08-17T16:38:50.910Z,29.1
2022-08-17T16:40:50.912Z,29.1
2022-08-17T16:42:50.792Z,29.1
2022-08-17T16:44:50.406Z,29.1
2022-08-17T16:46:50.857Z,29.1
2022-08-17T16:48:50.630Z,29.0
2022-08-17T16:51:04.861Z,29.0
2022-08-17T16:52:51.399Z,29.0
2022-08-17T16:54:50.266Z,29.0
2022-08-17T16:56:50.488Z,29.0
2022-08-17T16:58:52.753Z,29.0
2022-08-17T17:00:50.741Z,28.9
2022-08-17T17:02:51.647Z,28.9
2022-08-17T17:04:50.524Z,28.9
2022-08-17T17:06:50.620Z,28.9
2022-08-17T17:08:50.603Z,28.9
2022-08-17T17:10:50.513Z,28.8
2022-08-17T17:13:04.744Z,28.8
2022-08-17T17:14:49.934Z,28.7
2022-08-17T17:16:50.125Z,28.7
2022-08-17T17:18:50.100Z,28.7
2022-08-17T17:20:50.253Z,28.6
2022-08-17T17:22:50.071Z,28.6
2022-08-17T17:24:50.705Z,28.6
2022-08-17T17:26:50.045Z,28.6
2022-08-17T17:28:49.963Z,28.5
2022-08-17T17:30:50.074Z,28.4
2022-08-17T17:32:50.017Z,28.4
2022-08-17T17:34:51.613Z,28.4
2022-08-17T17:36:49.993Z,28.3
2022-08-17T17:38:49.959Z,28.3
2022-08-17T17:40:50.183Z,28.2
2022-08-17T17:42:50.305Z,28.2
2022-08-17T17:44:50.407Z,28.2
2022-08-17T17:46:50.654Z,28.1
2022-08-17T17:48:51.277Z,28.0
2022-08-17T17:50:50.319Z,28.0
2022-08-17T17:52:50.424Z,27.9
2022-08-17T17:54:50.462Z,27.9
2022-08-17T17:56:50.646Z,27.9
2022-08-17T17:58:50.772Z,27.8
2022-08-17T18:00:50.724Z,27.7
2022-08-17T18:02:53.541Z,27.7
2022-08-17T18:04:50.819Z,27.7
2022-08-17T18:06:49.943Z,27.6
2022-08-17T18:08:49.985Z,27.5
2022-08-17T18:10:52.135Z,27.4
2022-08-17T18:12:50.203Z,27.4
2022-08-17T18:14:50.121Z,27.4
2022-08-17T18:16:50.016Z,27.3
2022-08-17T18:18:50.894Z,27.2
2022-08-17T18:20:56.691Z,27.1
2022-08-17T18:22:50.737Z,27.1
2022-08-17T18:24:50.824Z,27.0
2022-08-17T18:26:52.510Z,27.0
2022-08-17T18:28:50.443Z,26.9
2022-08-17T18:30:50.619Z,26.8
2022-08-17T18:32:50.459Z,26.8
2022-08-17T18:34:50.768Z,26.7
2022-08-17T18:36:50.167Z,26.7
2022-08-17T18:38:50.127Z,26.5
2022-08-17T18:40:50.073Z,26.5
2022-08-17T18:42:50.015Z,26.5
2022-08-17T18:44:56.021Z,26.4
2022-08-17T18:46:50.376Z,26.3
2022-08-17T18:48:50.402Z,26.2
2022-08-17T18:50:54.368Z,26.2
2022-08-17T18:52:50.340Z,26.1
2022-08-17T18:54:50.179Z,26.0
2022-08-17T18:56:50.546Z,25.9
2022-08-17T18:58:50.488Z,25.8
2022-08-17T19:00:50.444Z,25.8
2022-08-17T19:02:50.553Z,25.6
2022-08-17T19:04:50.269Z,25.6
2022-08-17T19:06:50.440Z,25.6
2022-08-17T19:08:50.488Z,25.5
2022-08-17T19:10:50.761Z,25.4
2022-08-17T19:12:50.572Z,25.3
2022-08-17T19:14:50.517Z,25.2
2022-08-17T19:16:50.810Z,25.2
2022-08-17T19:18:50.011Z,25.1
2022-08-17T19:20:50.932Z,25.0
2022-08-17T19:22:50.770Z,24.9
2022-08-17T19:25:04.068Z,24.8
2022-08-17T19:26:57.882Z,24.8
2022-08-17T19:28:50.848Z,24.7
2022-08-17T19:30:50.830Z,24.6
2022-08-17T19:32:50.814Z,24.6
2022-08-17T19:34:50.370Z,24.5
2022-08-17T19:36:49.942Z,24.5
2022-08-17T19:38:50.877Z,24.4
2022-08-17T19:40:55.247Z,24.3
2022-08-17T19:42:50.380Z,24.2
2022-08-17T19:44:50.391Z,24.2
2022-08-17T19:47:08.841Z,24.2
2022-08-17T19:48:50.419Z,24.0
2022-08-17T19:50:50.465Z,24.0
2022-08-17T19:52:50.867Z,23.9
2022-08-17T19:54:50.025Z,23.8
2022-08-17T19:56:50.324Z,23.8
2022-08-17T19:58:51.909Z,23.8
2022-08-17T20:00:50.897Z,23.7
2022-08-17T20:02:49.969Z,23.6
2022-08-17T20:04:50.457Z,23.6
2022-08-17T20:06:50.733Z,23.5
2022-08-17T20:08:50.747Z,23.5
2022-08-17T20:10:55.650Z,23.4
2022-08-17T20:12:50.739Z,23.4
2022-08-17T20:14:56.323Z,23.4
2022-08-17T20:16:50.665Z,23.4
2022-08-17T20:18:50.629Z,23.3
2022-08-17T20:20:56.223Z,23.2
2022-08-17T20:22:53.072Z,23.2
2022-08-17T20:24:50.276Z,23.2
2022-08-17T20:27:00.179Z,23.1
2022-08-17T20:28:50.011Z,23.1
2022-08-17T20:30:50.071Z,23.0
2022-08-17T20:32:50.036Z,23.0
2022-08-17T20:34:50.390Z,23.0
2022-08-17T20:36:50.902Z,22.9
2022-08-17T20:38:50.111Z,22.9
2022-08-17T20:40:50.149Z,22.8
2022-08-17T20:42:50.046Z,22.8
2022-08-17T20:44:50.004Z,22.8
2022-08-17T20:46:51.163Z,22.7
2022-08-17T20:48:50.193Z,22.7
2022-08-17T20:50:50.101Z,22.7
2022-08-17T20:52:50.162Z,22.7
2022-08-17T20:54:50.139Z,22.7
2022-08-17T20:56:50.530Z,22.6
2022-08-17T20:58:50.643Z,22.6
2022-08-17T21:00:50.891Z,22.6
2022-08-17T21:02:50.907Z,22.6
2022-08-17T21:04:50.632Z,22.6
2022-08-17T21:06:49.928Z,22.6
2022-08-17T21:08:49.990Z,22.5
2022-08-17T21:10:50.788Z,22.5
2022-08-17T21:12:50.764Z,22.6
2022-08-17T21:14:50.766Z,22.5
2022-08-17T21:16:53.827Z,22.5
2022-08-17T21:18:50.753Z,22.5
2022-08-17T21:20:50.778Z,22.4
2022-08-17T21:22:50.063Z,22.4
2022-08-17T21:24:50.134Z,22.4
2022-08-17T21:26:51.411Z,22.4
2022-08-17T21:29:30.723Z,22.4
2022-08-17T21:30:51.779Z,22.4
2022-08-17T21:32:52.548Z,22.4
2022-08-17T21:34:50.906Z,22.3
2022-08-17T21:36:53.228Z,22.3
2022-08-17T21:38:58.102Z,22.3
2022-08-17T21:40:50.049Z,22.3
2022-08-17T21:42:50.647Z,22.2
2022-08-17T21:44:50.570Z,22.2
2022-08-17T21:46:50.819Z,22.2
2022-08-17T21:48:54.938Z,22.2
2022-08-17T21:50:50.836Z,22.2
2022-08-17T21:52:50.798Z,22.2
2022-08-17T21:54:50.651Z,22.2
2022-08-17T21:56:50.106Z,22.1
2022-08-17T21:58:50.064Z,22.1
2022-08-17T22:00:50.249Z,22.1
2022-08-17T22:02:50.181Z,22.1
2022-08-17T22:04:50.033Z,22.1
2022-08-17T22:06:58.142Z,22.1
2022-08-17T22:08:50.131Z,22.0
2022-08-17T22:10:50.210Z,22.0
2022-08-17T22:12:50.261Z,22.0
2022-08-17T22:14:54.513Z,22.0
2022-08-17T22:16:50.835Z,22.0
2022-08-17T22:18:54.290Z,21.9
2022-08-17T22:20:50.065Z,21.9
2022-08-17T22:22:49.987Z,21.8
2022-08-17T22:24:57.927Z,21.8
2022-08-17T22:26:50.859Z,21.8
2022-08-17T22:28:50.833Z,21.8
2022-08-17T22:30:50.653Z,21.8
2022-08-17T22:32:50.527Z,21.8
2022-08-17T22:34:50.683Z,21.8
2022-08-17T22:36:50.070Z,21.8
2022-08-17T22:38:50.031Z,21.8
2022-08-17T22:40:50.165Z,21.7
2022-08-17T22:42:49.996Z,21.7
2022-08-17T22:44:50.027Z,21.7
2022-08-17T22:46:50.209Z,21.7
2022-08-17T22:48:50.702Z,21.7
2022-08-17T22:50:50.690Z,21.7
2022-08-17T22:52:50.738Z,21.7
2022-08-17T22:54:50.769Z,21.6
2022-08-17T22:56:52.172Z,21.6
2022-08-17T22:58:59.785Z,21.6
2022-08-17T23:00:50.940Z,21.6
2022-08-17T23:02:56.179Z,21.6
2022-08-17T23:04:50.835Z,21.5
2022-08-17T23:06:50.072Z,21.5
2022-08-17T23:08:50.108Z,21.5
2022-08-17T23:10:50.280Z,21.5
2022-08-17T23:12:50.216Z,21.5
2022-08-17T23:14:50.175Z,21.5
2022-08-17T23:16:50.617Z,21.5
2022-08-17T23:18:50.608Z,21.5
2022-08-17T23:20:51.086Z,21.4
2022-08-17T23:22:53.380Z,21.4
2022-08-17T23:24:50.189Z,21.4
2022-08-17T23:26:50.424Z,21.4
2022-08-17T23:28:50.439Z,21.4
2022-08-17T23:30:50.425Z,21.4
2022-08-17T23:32:54.654Z,21.4
2022-08-17T23:34:50.012Z,21.4
2022-08-17T23:36:53.420Z,21.4
2022-08-17T23:38:50.240Z,21.4
2022-08-17T23:40:50.258Z,21.4
2022-08-17T23:42:51.163Z,21.4
2022-08-17T23:44:50.216Z,21.4
2022-08-17T23:46:50.490Z,21.3
2022-08-17T23:48:50.602Z,21.3
2022-08-17T23:50:50.514Z,21.3
2022-08-17T23:52:50.502Z,21.3
2022-08-17T23:54:50.450Z,21.3
2022-08-17T23:56:49.943Z,21.3
2022-08-17T23:58:51.843Z,21.3
